Time;durP1;ratioP1;P1;durP2;ratioP2;P2;SDS_P1;SDS_P2;PMS_P1;PMS_P2;Temp;Humidity;BMP_temperature;BMP_pressure;BME280_temperature;BME280_humidity;BME280_pressure;Samples;Min_cycle;Max_cycle;Signal;HPM_P1;HPM_P2
2021/01/20 00:02:07;;;;;;;7.63;4.00;;;0.80;99.90;;;1.38;100.00;97470.22;5002446;28;20470;-77
2021/01/20 00:04:35;;;;;;;10.03;5.17;;;0.90;99.90;;;1.34;100.00;97471.47;4997901;28;20495;-77
2021/01/20 00:07:03;;;;;;;9.47;5.10;;;0.90;99.90;;;1.35;100.00;97473.91;4999515;28;20554;-76
2021/01/20 00:09:31;;;;;;;7.23;4.27;;;0.90;99.90;;;1.36;100.00;97472.94;5001082;28;20472;-77
2021/01/20 00:12:00;;;;;;;5.83;3.60;;;0.90;99.90;;;1.40;100.00;97471.69;5001241;28;20499;-77
2021/01/20 00:14:28;;;;;;;6.77;4.10;;;0.90;99.90;;;1.47;100.00;97469.34;4999720;28;20529;-76
2021/01/20 00:16:56;;;;;;;5.17;3.63;;;0.90;99.90;;;1.53;100.00;97464.44;4999612;28;20455;-76
2021/01/20 00:19:23;;;;;;;8.53;4.43;;;1.00;99.90;;;1.58;100.00;97468.34;5000569;28;20989;-76
2021/01/20 00:21:51;;;;;;;5.47;4.03;;;1.10;99.90;;;1.60;100.00;97458.72;4997782;28;20472;-76
2021/01/20 00:24:18;;;;;;;7.80;4.50;;;1.00;99.90;;;1.62;100.00;97464.53;5000146;28;20482;-76
2021/01/20 00:26:46;;;;;;;8.70;4.57;;;1.10;99.90;;;1.66;100.00;97458.13;5001556;28;20484;-76
2021/01/20 00:29:14;;;;;;;8.43;4.13;;;1.20;99.90;;;1.68;100.00;97462.16;4998604;28;20491;-77
2021/01/20 00:31:42;;;;;;;6.00;3.33;;;1.20;99.90;;;1.71;100.00;97450.75;5002105;28;20490;-77
2021/01/20 00:34:10;;;;;;;7.33;4.40;;;1.20;99.90;;;1.71;100.00;97446.41;4999451;28;20467;-76
2021/01/20 00:36:38;;;;;;;6.93;4.07;;;1.30;99.90;;;1.74;100.00;97451.28;5001175;28;20881;-76
2021/01/20 00:39:06;;;;;;;6.40;3.70;;;1.20;99.90;;;1.77;100.00;97460.50;5000085;28;20468;-76
2021/01/20 00:41:34;;;;;;;5.40;4.00;;;1.30;99.90;;;1.79;100.00;97461.16;4999295;28;20515;-76
2021/01/20 00:44:02;;;;;;;6.83;3.60;;;1.40;99.90;;;1.83;100.00;97449.59;5001213;28;20462;-76
2021/01/20 00:46:30;;;;;;;11.33;5.47;;;1.40;99.90;;;1.86;100.00;97446.72;4997869;28;20514;-77
2021/01/20 00:48:58;;;;;;;7.00;4.10;;;1.40;99.90;;;1.83;100.00;97453.00;4999237;28;21343;-77
2021/01/20 00:51:25;;;;;;;9.00;4.43;;;1.40;99.90;;;1.89;100.00;97454.16;5001013;28;20474;-76
2021/01/20 00:53:53;;;;;;;6.27;3.70;;;1.40;99.90;;;1.89;100.00;97449.00;5000356;28;20463;-76
2021/01/20 00:56:20;;;;;;;6.20;4.57;;;1.30;99.90;;;1.89;100.00;97449.00;4999808;28;20482;-77
2021/01/20 00:58:48;;;;;;;6.03;4.33;;;1.30;99.90;;;1.87;100.00;97444.00;5000662;28;20470;-76
2021/01/20 01:01:15;;;;;;;9.07;5.17;;;1.20;99.90;;;1.93;100.00;97458.06;4997947;28;20466;-76
2021/01/20 01:03:44;;;;;;;5.70;3.67;;;1.40;99.90;;;1.93;100.00;97452.91;4997973;28;20467;-76
2021/01/20 01:06:12;;;;;;;5.80;4.17;;;1.40;99.90;;;1.89;100.00;97449.00;4998924;28;20505;-77
2021/01/20 01:08:39;;;;;;;8.17;4.03;;;1.40;99.90;;;1.89;100.00;97449.81;4996244;28;20521;-77
2021/01/20 01:11:07;;;;;;;6.43;3.23;;;1.40;99.90;;;1.90;100.00;97445.47;4998858;28;20471;-77
2021/01/20 01:13:35;;;;;;;8.73;4.37;;;1.40;99.90;;;1.87;100.00;97433.69;4993704;28;20983;-76
2021/01/20 01:16:03;;;;;;;7.00;4.60;;;1.30;99.90;;;1.88;100.00;97437.88;4998090;28;20467;-77
2021/01/20 01:18:30;;;;;;;7.80;3.83;;;1.30;99.90;;;1.88;100.00;97431.91;4999234;28;20528;-77
2021/01/20 01:20:59;;;;;;;6.27;3.60;;;1.30;99.90;;;1.80;100.00;97437.00;4999987;28;21003;-77
2021/01/20 01:23:26;;;;;;;9.60;4.07;;;1.10;99.90;;;1.77;100.00;97427.00;4999382;28;20875;-76
2021/01/20 01:25:54;;;;;;;7.60;4.07;;;1.10;99.90;;;1.66;100.00;97422.06;5000836;28;20525;-76
2021/01/20 01:28:22;;;;;;;4.33;3.40;;;0.90;99.90;;;1.60;100.00;97428.59;4998419;28;20471;-76
2021/01/20 01:30:49;;;;;;;6.83;3.97;;;0.80;99.90;;;1.55;100.00;97437.72;4999691;28;20460;-77
2021/01/20 01:33:17;;;;;;;9.47;4.57;;;0.70;99.90;;;1.53;100.00;97433.50;5000171;28;20501;-76
2021/01/20 01:35:45;;;;;;;8.00;4.00;;;0.80;99.90;;;1.52;100.00;97420.81;5000416;28;20459;-77
2021/01/20 01:38:13;;;;;;;5.97;3.60;;;0.80;99.90;;;1.51;100.00;97430.28;5000261;28;20560;-76
2021/01/20 01:40:41;;;;;;;11.17;4.47;;;0.70;99.90;;;1.32;100.00;97435.53;4999559;28;20455;-77
2021/01/20 01:43:08;;;;;;;7.40;4.70;;;0.60;99.90;;;1.27;100.00;97427.47;5000436;28;20452;-77
2021/01/20 01:45:36;;;;;;;6.40;3.77;;;0.50;99.90;;;1.26;100.00;97430.16;4998547;28;20542;-76
2021/01/20 01:48:04;;;;;;;6.33;4.10;;;0.40;99.90;;;1.29;100.00;97420.38;4997565;28;20472;-77
2021/01/20 01:50:32;;;;;;;5.47;4.17;;;0.60;99.90;;;1.34;100.00;97419.97;4998460;28;20470;-77
2021/01/20 01:52:59;;;;;;;10.77;4.47;;;0.60;99.90;;;1.23;100.00;97420.97;4998690;28;20471;-76
2021/01/20 01:55:28;;;;;;;4.70;3.40;;;0.40;99.90;;;1.24;100.00;97417.44;4999291;28;20549;-77
2021/01/20 01:57:56;;;;;;;9.00;4.87;;;0.50;99.90;;;1.25;100.00;97413.91;4998686;28;20478;-77
2021/01/20 02:00:24;;;;;;;8.30;4.80;;;0.70;99.90;;;1.27;100.00;97409.44;4999735;28;20471;-76
2021/01/20 02:02:51;;;;;;;8.23;4.30;;;0.60;99.90;;;1.26;100.00;97405.22;4997356;28;21098;-76
2021/01/20 02:05:19;;;;;;;5.93;3.60;;;0.50;99.90;;;1.30;100.00;97401.41;4998230;28;20498;-77
2021/01/20 02:07:48;;;;;;;4.90;3.70;;;0.60;99.90;;;1.26;100.00;97397.50;4998986;28;20467;-76
2021/01/20 02:10:15;;;;;;;7.60;4.73;;;0.50;99.90;;;1.26;100.00;97397.50;5000427;28;20481;-77
2021/01/20 02:13:10;;;;;;;11.10;3.87;;;0.50;99.90;;;1.24;100.00;97391.69;4999866;28;20466;-77
2021/01/20 02:15:47;;;;;;;9.53;3.90;;;0.50;99.90;;;1.23;100.00;97400.38;4998201;28;20545;-76
2021/01/20 02:18:20;;;;;;;7.10;3.37;;;0.40;99.90;;;1.24;100.00;97396.84;5000099;28;20521;-76
2021/01/20 02:21:28;;;;;;;8.83;4.10;;;0.50;99.90;;;1.26;100.00;97389.78;4997818;28;20490;-77
2021/01/20 02:23:58;;;;;;;4.90;3.77;;;0.60;99.90;;;1.23;100.00;97392.66;4998322;28;20467;-76
2021/01/20 02:26:39;;;;;;;7.13;4.47;;;0.50;99.90;;;1.21;100.00;97386.84;4999012;28;20511;-76
2021/01/20 02:29:29;;;;;;;7.07;3.50;;;0.50;99.90;;;1.25;100.00;97385.56;4994849;28;20494;-76
2021/01/20 02:32:05;;;;;;;5.93;4.00;;;0.50;99.90;;;1.26;100.00;97384.63;4999563;28;20468;-76
2021/01/20 02:34:36;;;;;;;7.13;4.33;;;0.60;99.90;;;1.35;100.00;97382.97;4999772;28;20471;-76
2021/01/20 02:37:05;;;;;;;5.93;4.00;;;0.70;99.90;;;1.29;100.00;97389.47;4999257;28;20463;-76
2021/01/20 02:39:34;;;;;;;11.33;4.10;;;0.60;99.90;;;1.34;100.00;97386.47;5002658;28;20891;-76
2021/01/20 02:42:03;;;;;;;6.83;3.57;;;0.70;99.90;;;1.32;100.00;97384.03;5001709;28;20521;-76
2021/01/20 02:44:34;;;;;;;6.60;3.87;;;0.70;99.90;;;1.35;100.00;97388.94;5003835;28;20463;-77
2021/01/20 02:47:06;;;;;;;5.73;3.80;;;0.70;99.90;;;1.34;100.00;97382.16;5001521;28;20482;-76
2021/01/20 02:49:35;;;;;;;7.23;3.77;;;0.70;99.90;;;1.37;100.00;97381.84;5003632;28;20467;-76
2021/01/20 02:52:13;;;;;;;5.33;3.80;;;0.80;99.90;;;1.42;100.00;97379.63;4999914;28;20605;-76
2021/01/20 02:54:43;;;;;;;5.53;3.33;;;0.80;99.90;;;1.44;100.00;97375.16;5001365;28;20455;-76
2021/01/20 02:57:13;;;;;;;8.87;3.47;;;0.80;99.90;;;1.44;100.00;97377.75;5001202;28;20825;-77
2021/01/20 02:59:47;;;;;;;10.20;4.23;;;0.90;99.90;;;1.41;100.00;97374.66;5001626;28;20468;-76
2021/01/20 03:02:19;;;;;;;5.73;4.07;;;0.70;99.90;;;1.37;100.00;97375.88;5002128;28;20463;-76
2021/01/20 03:04:50;;;;;;;6.00;3.53;;;0.70;99.90;;;1.27;100.00;97382.88;4998075;28;20467;-76
2021/01/20 03:07:21;;;;;;;6.30;4.30;;;0.50;99.90;;;1.29;100.00;97383.53;5001057;28;20467;-76
2021/01/20 03:09:49;;;;;;;5.07;2.87;;;0.50;99.90;;;1.29;100.00;97379.19;5001980;28;20466;-77
2021/01/20 03:12:16;;;;;;;5.90;3.23;;;0.50;99.90;;;1.27;100.00;97375.16;5002344;28;20463;-76
2021/01/20 03:14:46;;;;;;;8.03;3.67;;;0.50;99.90;;;1.20;100.00;97374.91;5002141;28;20471;-76
2021/01/20 03:17:13;;;;;;;12.57;3.40;;;0.40;99.90;;;1.04;100.00;97374.75;5002416;28;20472;-76
2021/01/20 03:19:42;;;;;;;6.40;3.77;;;0.20;99.90;;;1.12;100.00;97376.59;5001603;28;20864;-76
2021/01/20 03:22:09;;;;;;;5.73;3.10;;;0.40;99.90;;;1.13;100.00;97373.88;5002956;28;20474;-76
2021/01/20 03:24:37;;;;;;;8.70;4.63;;;0.30;99.90;;;1.17;100.00;97364.91;5000061;28;20487;-77
2021/01/20 03:27:05;;;;;;;5.70;3.53;;;0.50;99.90;;;1.17;100.00;97359.78;5003273;28;20947;-76
2021/01/20 03:29:32;;;;;;;4.90;4.30;;;0.40;99.90;;;1.18;100.00;97361.38;5001781;28;21019;-76
2021/01/20 03:32:01;;;;;;;6.37;3.00;;;0.40;99.90;;;1.13;100.00;97350.72;5001924;28;20875;-76
2021/01/20 03:34:31;;;;;;;6.77;3.13;;;0.40;99.90;;;1.14;100.00;97357.50;5000457;28;20605;-76
2021/01/20 03:36:59;;;;;;;7.93;3.50;;;0.40;99.90;;;1.08;100.00;97350.31;5001766;28;20475;-76
2021/01/20 03:39:27;;;;;;;5.67;3.23;;;0.30;99.90;;;1.12;100.00;97348.28;5000248;28;20538;-77
2021/01/20 03:41:54;;;;;;;6.63;3.70;;;0.40;99.90;;;1.08;100.00;97342.59;5001873;28;20969;-76
2021/01/20 03:44:21;;;;;;;3.00;2.43;;;0.40;99.90;;;1.11;100.00;97344.09;5001829;28;20451;-76
2021/01/20 03:46:51;;;;;;;6.43;3.50;;;0.40;99.90;;;1.11;100.00;97334.59;5001544;28;20507;-77
2021/01/20 03:49:19;;;;;;;6.50;3.10;;;0.50;99.90;;;1.12;100.00;97322.53;5000158;28;20472;-77
2021/01/20 03:51:46;;;;;;;5.40;3.23;;;0.40;99.90;;;1.10;100.00;97320.13;5001484;28;20471;-76
2021/01/20 03:54:15;;;;;;;6.00;3.20;;;0.50;99.90;;;1.12;100.00;97323.34;5000975;28;20463;-76
2021/01/20 03:56:42;;;;;;;10.67;3.53;;;0.40;99.90;;;1.11;100.00;97319.13;5002300;28;20553;-77
2021/01/20 03:59:10;;;;;;;4.90;3.37;;;0.40;99.90;;;1.10;100.00;97320.13;5001295;28;20529;-77
2021/01/20 04:01:37;;;;;;;6.47;3.83;;;0.40;99.90;;;1.06;100.00;97316.22;5001352;28;20566;-76
2021/01/20 04:04:05;;;;;;;5.83;3.10;;;0.40;99.90;;;1.06;100.00;97311.06;4999694;28;20475;-76
2021/01/20 04:06:33;;;;;;;5.03;3.70;;;0.40;99.90;;;1.08;100.00;97300.63;5000048;28;20586;-76
2021/01/20 04:09:00;;;;;;;7.43;4.07;;;0.30;99.90;;;1.07;100.00;97302.41;4999579;28;20470;-76
2021/01/20 04:11:29;;;;;;;7.73;3.97;;;0.30;99.90;;;1.08;100.00;97301.41;4997559;28;20522;-76
2021/01/20 04:13:56;;;;;;;6.37;4.00;;;0.40;99.90;;;1.05;100.00;97296.56;5001587;28;20463;-76
2021/01/20 04:16:24;;;;;;;4.90;3.43;;;0.30;99.90;;;1.10;100.00;97293.56;5000531;28;20514;-77
2021/01/20 04:18:51;;;;;;;4.00;2.73;;;0.40;99.90;;;1.12;100.00;97300.19;5001006;28;20885;-77
2021/01/20 04:21:19;;;;;;;5.30;3.13;;;0.50;99.90;;;1.10;100.00;97291.81;4999199;28;20883;-76
2021/01/20 04:23:46;;;;;;;4.87;2.90;;;0.50;99.90;;;1.09;100.00;97287.59;5000104;28;20467;-76
2021/01/20 04:26:14;;;;;;;5.33;3.57;;;0.40;99.90;;;1.08;100.00;97291.13;5000969;28;20504;-76
2021/01/20 04:28:42;;;;;;;5.20;3.50;;;0.40;99.90;;;1.10;100.00;97296.94;4999655;28;20479;-76
2021/01/20 04:31:10;;;;;;;6.30;3.37;;;0.40;99.90;;;1.12;100.00;97302.75;4998676;28;20498;-77
2021/01/20 04:33:37;;;;;;;6.47;3.53;;;0.50;99.90;;;1.13;100.00;97291.50;4997631;28;20521;-77
2021/01/20 04:36:06;;;;;;;4.33;3.00;;;0.50;99.90;;;1.12;100.00;97299.38;4999383;28;20471;-76
2021/01/20 04:38:34;;;;;;;5.67;3.33;;;0.40;99.90;;;1.13;100.00;97288.94;5000546;28;20480;-77
2021/01/20 04:41:02;;;;;;;5.37;3.30;;;0.50;99.90;;;1.13;100.00;97280.41;4999992;28;20883;-77
2021/01/20 04:43:29;;;;;;;5.53;3.10;;;0.40;99.90;;;1.15;100.00;97283.63;5001257;28;20964;-76
2021/01/20 04:45:58;;;;;;;32.03;12.73;;;0.50;99.90;;;1.16;100.00;97286.06;4999827;28;20943;-78
2021/01/20 04:48:31;;;;;;;7.20;4.40;;;0.60;99.90;;;1.16;100.00;97285.25;4997744;28;20472;-76
2021/01/20 04:51:04;;;;;;;5.20;3.23;;;0.60;99.90;;;1.18;100.00;97284.13;4997019;28;20467;-77
2021/01/20 04:53:33;;;;;;;7.97;3.73;;;0.50;99.90;;;1.17;100.00;97282.53;5002022;28;20458;-78
2021/01/20 04:56:10;;;;;;;5.47;3.03;;;0.50;99.90;;;1.21;100.00;97280.47;5001737;28;20464;-77
2021/01/20 04:58:38;;;;;;;4.73;3.20;;;0.60;99.90;;;1.20;100.00;97282.25;4997855;28;20459;-77
2021/01/20 05:01:06;;;;;;;5.33;3.10;;;0.50;99.90;;;1.22;100.00;97276.94;4999935;28;20468;-77
2021/01/20 05:03:34;;;;;;;4.93;3.53;;;0.60;99.90;;;1.24;100.00;97287.91;5001562;28;20482;-75
2021/01/20 05:06:02;;;;;;;19.37;6.13;;;0.60;99.90;;;1.22;100.00;97285.47;5000826;28;20500;-75
2021/01/20 05:08:29;;;;;;;5.90;3.37;;;0.50;99.90;;;1.23;100.00;97281.94;5000767;28;20454;-76
2021/01/20 05:10:57;;;;;;;4.67;3.50;;;0.60;99.90;;;1.26;100.00;97284.22;4999975;28;20455;-75
2021/01/20 05:13:29;;;;;;;7.40;3.43;;;0.60;99.90;;;1.27;100.00;97283.28;5001369;28;20469;-78
2021/01/20 05:15:58;;;;;;;7.83;3.27;;;0.80;99.90;;;1.32;100.00;97277.69;5000881;28;20455;-75
2021/01/20 05:18:27;;;;;;;6.63;3.03;;;0.70;99.90;;;1.34;100.00;97275.75;5000551;28;20460;-76
2021/01/20 05:20:55;;;;;;;22.10;10.40;;;0.70;99.90;;;1.37;100.00;97278.84;5001526;28;20466;-75
2021/01/20 05:23:26;;;;;;;5.13;3.90;;;0.80;99.90;;;1.38;100.00;97264.22;5000476;28;20456;-75
2021/01/20 05:25:54;;;;;;;5.67;3.40;;;0.80;99.90;;;1.43;100.00;97261.97;5000674;28;20502;-75
2021/01/20 05:28:23;;;;;;;5.97;3.30;;;0.90;99.90;;;1.48;100.00;97259.78;4998419;28;20858;-76
2021/01/20 05:30:53;;;;;;;5.70;3.77;;;0.90;99.90;;;1.53;100.00;97258.34;5000688;28;20447;-76
2021/01/20 05:33:25;;;;;;;8.77;3.50;;;0.90;99.90;;;1.57;100.00;97263.19;5000989;28;20458;-75
2021/01/20 05:36:06;;;;;;;12.03;5.40;;;0.90;99.90;;;1.58;100.00;97257.09;5001642;28;20470;-76
2021/01/20 05:38:36;;;;;;;8.13;4.13;;;1.00;99.90;;;1.60;100.00;97247.47;5000547;28;20941;-76
2021/01/20 05:41:21;;;;;;;6.17;3.50;;;1.00;99.90;;;1.64;100.00;97243.59;4998427;28;20455;-76
2021/01/20 05:43:52;;;;;;;9.13;3.80;;;1.00;99.90;;;1.66;100.00;97249.44;5000398;28;20539;-76
2021/01/20 05:46:39;;;;;;;5.37;3.73;;;1.10;99.90;;;1.65;100.00;97250.38;5000348;28;20548;-76
2021/01/20 05:49:21;;;;;;;5.50;3.30;;;1.00;99.90;;;1.63;100.00;97247.97;5001374;28;20459;-76
2021/01/20 05:51:51;;;;;;;5.37;3.03;;;0.90;99.90;;;1.65;100.00;97250.38;5000735;28;20451;-75
2021/01/20 05:54:34;;;;;;;4.93;3.00;;;1.00;99.90;;;1.66;100.00;97263.13;4999774;28;20463;-75
2021/01/20 05:57:16;;;;;;;6.03;3.57;;;1.00;99.90;;;1.69;100.00;97257.69;5000565;28;20463;-75
2021/01/20 05:59:46;;;;;;;5.00;2.90;;;1.10;99.90;;;1.69;100.00;97249.13;5000698;28;20454;-76
2021/01/20 06:02:15;;;;;;;10.47;2.80;;;1.10;99.90;;;1.66;100.00;97257.16;5001773;28;20517;-77
2021/01/20 06:04:44;;;;;;;5.00;3.27;;;1.00;99.90;;;1.64;100.00;97246.19;5000907;28;20513;-75
2021/01/20 06:07:15;;;;;;;5.53;3.50;;;1.00;99.90;;;1.66;100.00;97246.88;5001107;28;20503;-76
2021/01/20 06:09:44;;;;;;;5.23;3.00;;;1.00;99.90;;;1.62;100.00;97245.53;5000908;28;20466;-75
2021/01/20 06:12:14;;;;;;;5.00;3.00;;;0.90;99.90;;;1.58;100.00;97246.78;5000696;28;20528;-76
2021/01/20 06:14:42;;;;;;;5.90;3.13;;;0.90;99.90;;;1.64;100.00;97239.28;5004008;28;20521;-76
2021/01/20 06:17:16;;;;;;;6.20;3.60;;;1.00;99.90;;;1.59;100.00;97241.50;5004658;28;20461;-75
2021/01/20 06:19:49;;;;;;;5.23;3.50;;;0.80;99.90;;;1.57;100.00;97235.69;5004477;28;20466;-76
2021/01/20 06:22:19;;;;;;;4.60;3.30;;;0.90;99.90;;;1.57;100.00;97243.41;5004713;28;20479;-75
2021/01/20 06:24:49;;;;;;;5.60;3.63;;;0.80;99.90;;;1.55;100.00;97249.69;5004434;28;20456;-76
2021/01/20 06:27:27;;;;;;;5.30;3.03;;;0.80;99.90;;;1.52;100.00;97240.50;5004034;28;20503;-76
2021/01/20 06:30:06;;;;;;;4.60;3.00;;;0.80;99.90;;;1.59;100.00;97235.53;5004532;28;20540;-75
2021/01/20 06:32:36;;;;;;;2.83;2.63;;;0.90;99.90;;;1.63;100.00;97234.28;5003836;28;20454;-76
2021/01/20 06:35:05;;;;;;;6.53;2.60;;;1.00;99.90;;;1.60;100.00;97237.94;5004088;28;20470;-75
2021/01/20 06:37:39;;;;;;;3.90;2.80;;;0.90;99.90;;;1.61;100.00;97233.59;5002509;28;20892;-76
2021/01/20 06:40:40;;;;;;;4.90;3.27;;;0.90;99.90;;;1.59;100.00;97231.19;5003570;28;20466;-76
2021/01/20 06:43:43;;;;;;;4.30;2.80;;;0.90;99.90;;;1.59;100.00;97227.81;4999134;28;20466;-75
2021/01/20 06:46:25;;;;;;;7.20;3.50;;;0.90;99.90;;;1.57;100.00;97229.72;5003366;28;20499;-76
2021/01/20 06:49:14;;;;;;;5.23;2.87;;;0.80;99.90;;;1.61;100.00;97225.88;5004147;28;20545;-75
2021/01/20 06:52:01;;;;;;;3.80;2.80;;;0.90;99.90;;;1.66;100.00;97213.38;5001310;28;20878;-76
2021/01/20 06:54:41;;;;;;;4.47;3.10;;;0.90;99.90;;;1.68;100.00;97225.13;5003524;28;21100;-75
2021/01/20 06:57:33;;;;;;;6.87;2.80;;;1.00;99.90;;;1.71;100.00;97211.13;5002984;28;20983;-76
2021/01/20 07:00:17;;;;;;;5.30;3.30;;;1.00;99.90;;;1.74;100.00;97211.63;5004041;28;20474;-75
2021/01/20 07:03:04;;;;;;;4.47;3.33;;;1.00;99.90;;;1.76;100.00;97206.34;5003525;28;20455;-75
2021/01/20 07:05:35;;;;;;;4.40;3.17;;;1.00;99.90;;;1.78;100.00;97207.78;5002786;28;20451;-75
2021/01/20 07:08:07;;;;;;;6.60;3.13;;;1.10;99.90;;;1.80;100.00;97202.50;5003471;28;20471;-75
2021/01/20 07:11:05;;;;;;;6.80;2.83;;;1.20;99.90;;;1.84;100.00;97211.53;5001082;28;20475;-75
2021/01/20 07:13:40;;;;;;;4.10;3.00;;;1.20;99.90;;;1.81;100.00;97204.91;5001859;28;20520;-76
2021/01/20 07:16:13;;;;;;;4.43;2.80;;;1.20;99.90;;;1.78;100.00;97214.72;5002795;28;20462;-76
2021/01/20 07:18:44;;;;;;;6.47;3.00;;;1.10;99.90;;;1.72;100.00;97210.19;5003084;28;20447;-76
2021/01/20 07:21:11;;;;;;;4.20;2.67;;;1.00;99.90;;;1.72;100.00;97205.03;5003082;28;20467;-76
2021/01/20 07:23:40;;;;;;;3.67;3.07;;;1.10;99.90;;;1.74;100.00;97203.09;5001777;28;20464;-76
2021/01/20 07:26:09;;;;;;;3.87;3.20;;;1.10;99.90;;;1.75;100.00;97204.72;5002821;28;20499;-76
2021/01/20 07:28:40;;;;;;;8.87;3.10;;;1.20;99.90;;;1.67;100.00;97204.66;5002498;28;20486;-75
2021/01/20 07:31:11;;;;;;;6.30;2.90;;;1.00;99.90;;;1.70;100.00;97196.66;5003135;28;20455;-76
2021/01/20 07:33:41;;;;;;;4.50;3.10;;;1.00;99.90;;;1.77;100.00;97197.66;5002401;28;21035;-76
2021/01/20 07:36:11;;;;;;;4.00;3.17;;;1.10;99.90;;;1.79;100.00;97211.19;5003266;28;20450;-75
2021/01/20 07:38:38;;;;;;;6.20;3.27;;;1.10;99.90;;;1.77;100.00;97207.97;4999937;28;20458;-76
2021/01/20 07:41:20;;;;;;;5.07;3.03;;;1.10;99.90;;;1.75;100.00;97208.09;5003061;28;20463;-76
2021/01/20 07:43:50;;;;;;;4.30;3.07;;;1.00;99.90;;;1.73;100.00;97192.00;5002329;28;20570;-76
2021/01/20 07:46:22;;;;;;;4.70;2.80;;;1.00;99.90;;;1.72;100.00;97189.56;5002728;28;20499;-76
2021/01/20 07:48:51;;;;;;;8.83;3.07;;;1.00;99.90;;;1.72;100.00;97189.56;5002392;28;20451;-76
2021/01/20 07:51:21;;;;;;;4.83;2.60;;;1.00;99.90;;;1.69;100.00;97184.72;5002158;28;20436;-76
2021/01/20 07:54:00;;;;;;;5.80;3.30;;;0.90;99.90;;;1.66;100.00;97190.19;5002234;28;20804;-75
2021/01/20 07:56:29;;;;;;;4.67;2.93;;;0.90;99.90;;;1.67;100.00;97189.19;5000857;28;20483;-75
2021/01/20 07:59:14;;;;;;;4.87;3.40;;;1.00;99.90;;;1.65;100.00;97193.72;5001556;28;20490;-76
2021/01/20 08:01:42;;;;;;;5.07;3.10;;;0.90;99.90;;;1.67;100.00;97190.00;5002559;28;20942;-76
2021/01/20 08:04:19;;;;;;;5.00;3.33;;;0.90;99.90;;;1.74;100.00;97178.13;5002528;28;20543;-76
2021/01/20 08:06:47;;;;;;;5.47;3.60;;;1.10;99.90;;;1.78;100.00;97173.47;5001661;28;20594;-76
2021/01/20 08:09:15;;;;;;;5.00;3.17;;;1.10;99.90;;;1.79;100.00;97175.09;5002011;28;20454;-76
2021/01/20 08:11:47;;;;;;;5.23;2.80;;;1.20;99.90;;;1.80;100.00;97163.84;5001195;28;20470;-76
2021/01/20 08:14:16;;;;;;;7.13;4.07;;;1.20;99.90;;;1.87;100.00;97177.72;5001764;28;20540;-76
2021/01/20 08:16:44;;;;;;;6.43;3.50;;;1.20;99.90;;;1.93;100.00;97182.25;5002008;28;20522;-76
2021/01/20 08:19:20;;;;;;;6.67;3.80;;;1.30;99.90;;;1.99;100.00;97179.06;5001590;28;20463;-76
2021/01/20 08:21:48;;;;;;;4.63;3.20;;;1.40;99.90;;;2.06;100.00;97174.91;5001498;28;20472;-76
2021/01/20 08:24:21;;;;;;;5.87;3.23;;;1.50;99.90;;;2.09;100.00;97172.00;5001624;28;20459;-76
2021/01/20 08:26:57;;;;;;;6.37;3.40;;;1.50;99.90;;;2.14;100.00;97156.88;5001910;28;21022;-76
2021/01/20 08:29:26;;;;;;;5.53;3.83;;;1.60;99.90;;;2.18;100.00;97158.19;5001713;28;20479;-75
2021/01/20 08:32:09;;;;;;;5.63;3.80;;;1.60;99.90;;;2.24;100.00;97161.91;5001868;28;20486;-76
2021/01/20 08:34:39;;;;;;;5.47;3.67;;;1.70;99.90;;;2.28;100.00;97158.88;5001019;28;20456;-76
2021/01/20 08:37:09;;;;;;;8.40;3.57;;;1.80;99.90;;;2.32;100.00;97152.44;5001464;28;20947;-76
2021/01/20 08:39:51;;;;;;;7.60;3.80;;;1.80;99.90;;;2.36;100.00;97158.88;5001840;28;20483;-76
2021/01/20 08:42:22;;;;;;;13.57;3.73;;;1.90;99.90;;;2.42;100.00;97152.28;5001438;28;20452;-76
2021/01/20 08:45:14;;;;;;;5.10;3.40;;;1.90;99.90;;;2.47;100.00;97160.34;5001593;28;20451;-76
2021/01/20 08:47:52;;;;;;;8.40;3.90;;;2.00;99.90;;;2.49;100.00;97156.66;5001249;28;20496;-76
2021/01/20 08:50:33;;;;;;;8.70;4.53;;;2.00;99.90;;;2.54;100.00;97145.84;4999123;28;20462;-76
2021/01/20 08:53:03;;;;;;;9.20;4.37;;;2.00;99.90;;;2.60;100.00;97152.16;4996771;28;20447;-75
2021/01/20 08:55:32;;;;;;;6.13;3.70;;;2.10;99.90;;;2.63;100.00;97144.09;5000988;28;20482;-75
2021/01/20 08:58:25;;;;;;;6.73;3.73;;;2.10;99.90;;;2.67;100.00;97145.41;5001125;28;20598;-75
2021/01/20 09:00:56;;;;;;;5.67;4.00;;;2.10;99.90;;;2.71;100.00;97149.28;5000779;28;20452;-76
2021/01/20 09:03:25;;;;;;;11.60;3.47;;;2.10;99.90;;;2.68;100.00;97144.41;5001642;28;20509;-77
2021/01/20 09:05:55;;;;;;;6.93;4.10;;;2.10;99.90;;;2.72;100.00;97150.88;5000770;28;20462;-75
2021/01/20 09:08:24;;;;;;;5.50;3.03;;;2.10;99.90;;;2.76;100.00;97141.84;5001137;28;20467;-75
2021/01/20 09:10:53;;;;;;;5.97;3.10;;;2.20;99.90;;;2.83;100.00;97147.97;5001133;28;20538;-76
2021/01/20 09:13:21;;;;;;;10.80;4.20;;;2.30;99.90;;;2.84;100.00;97136.69;5000871;28;20530;-76
2021/01/20 09:15:52;;;;;;;6.27;3.90;;;2.30;99.90;;;2.87;100.00;97147.50;5001091;28;20948;-76
2021/01/20 09:18:21;;;;;;;12.13;4.23;;;2.30;99.90;;;2.93;100.00;97146.03;5000444;28;20963;-75
2021/01/20 09:20:50;;;;;;;8.57;4.20;;;2.40;99.90;;;2.93;100.00;97135.72;5001066;28;20463;-76
2021/01/20 09:23:20;;;;;;;11.27;3.83;;;2.40;99.90;;;2.94;100.00;97137.34;5001192;28;20510;-76
2021/01/20 09:25:48;;;;;;;9.07;3.77;;;2.40;99.90;;;2.94;100.00;97129.59;5001188;28;20450;-75
2021/01/20 09:28:16;;;;;;;7.40;4.20;;;2.30;99.90;;;2.98;100.00;97136.06;5000826;28;20875;-76
2021/01/20 09:30:43;;;;;;;5.90;4.03;;;2.40;99.90;;;3.02;100.00;97124.41;5000566;28;20496;-76
2021/01/20 09:33:12;;;;;;;9.53;4.07;;;2.40;99.90;;;3.09;100.00;97122.78;5001402;28;20812;-75
2021/01/20 09:35:41;;;;;;;9.17;4.13;;;2.50;99.90;;;3.11;100.00;97127.81;4998957;28;20462;-75
2021/01/20 09:38:09;;;;;;;9.00;4.17;;;2.50;99.90;;;3.15;100.00;97129.91;5001320;28;20813;-76
2021/01/20 09:40:38;;;;;;;11.80;5.27;;;2.50;99.90;;;3.16;100.00;97128.91;5000713;28;20458;-75
2021/01/20 09:43:05;;;;;;;9.30;4.43;;;2.60;99.90;;;3.19;100.00;97126.03;5000760;28;20481;-75
2021/01/20 09:45:33;;;;;;;9.80;5.60;;;2.50;99.90;;;3.23;100.00;97131.69;5001166;28;20451;-75
2021/01/20 09:48:06;;;;;;;6.40;4.60;;;2.60;99.90;;;3.24;100.00;97128.09;5003065;28;20487;-75
2021/01/20 09:50:36;;;;;;;9.00;5.37;;;2.60;99.90;;;3.25;100.00;97120.19;5005573;28;20459;-76
2021/01/20 09:53:05;;;;;;;8.33;5.07;;;2.60;99.90;;;3.29;100.00;97126.66;5004736;28;21037;-76
2021/01/20 09:55:33;;;;;;;7.27;4.60;;;2.70;99.90;;;3.26;100.00;97123.59;5004015;28;21072;-76
2021/01/20 09:58:02;;;;;;;9.27;4.57;;;2.60;99.90;;;3.29;100.00;97123.25;5004258;28;20871;-76
2021/01/20 10:00:31;;;;;;;10.67;3.87;;;2.70;99.90;;;3.34;100.00;97119.19;5005070;28;20450;-76
2021/01/20 10:03:00;;;;;;;8.93;4.40;;;2.80;99.90;;;3.39;100.00;97114.38;5003663;28;20451;-76
2021/01/20 10:05:28;;;;;;;8.70;4.13;;;2.80;99.90;;;3.45;100.00;97111.13;5004118;28;20462;-76
2021/01/20 10:07:57;;;;;;;7.83;4.10;;;2.90;99.90;;;3.52;100.00;97108.66;5003730;28;21019;-76
2021/01/20 10:10:25;;;;;;;10.20;5.13;;;3.00;99.90;;;3.57;100.00;97108.19;5004091;28;20443;-77
2021/01/20 10:12:54;;;;;;;5.30;4.00;;;3.00;99.90;;;3.63;100.00;97099.75;5004127;28;20460;-75
2021/01/20 10:15:23;;;;;;;9.30;3.40;;;3.10;99.90;;;3.67;100.00;97094.09;5005980;28;20460;-76
2021/01/20 10:17:52;;;;;;;10.50;4.07;;;3.20;99.90;;;3.72;100.00;97075.47;5004972;28;20483;-76
2021/01/20 10:20:23;;;;;;;6.10;4.20;;;3.30;99.90;;;3.76;100.00;97066.41;5004137;28;20547;-76
2021/01/20 10:22:50;;;;;;;6.73;3.30;;;3.30;99.90;;;3.79;100.00;97061.72;5004058;28;20538;-76
2021/01/20 10:25:19;;;;;;;8.30;4.40;;;3.30;99.90;;;3.85;100.00;97073.19;5003622;28;20459;-76
2021/01/20 10:27:46;;;;;;;6.97;4.37;;;3.30;99.90;;;3.91;100.00;97065.53;5002658;28;20999;-76
2021/01/20 10:30:15;;;;;;;10.70;4.20;;;3.50;99.90;;;3.96;100.00;97067.59;5003014;28;20487;-76
2021/01/20 10:32:43;;;;;;;8.10;5.10;;;3.40;99.90;;;4.02;100.00;97061.78;5004115;28;20470;-75
2021/01/20 10:35:11;;;;;;;9.20;4.23;;;3.50;99.90;;;4.01;100.00;97066.13;5003300;28;20459;-76
2021/01/20 10:37:39;;;;;;;12.83;4.90;;;3.50;99.90;;;4.05;100.00;97056.25;5004563;28;20522;-76
2021/01/20 10:40:08;;;;;;;7.97;4.10;;;3.40;99.90;;;4.08;100.00;97048.16;4998879;28;20455;-76
2021/01/20 10:42:37;;;;;;;11.20;4.07;;;3.50;99.90;;;4.14;100.00;97044.06;5004545;28;20813;-75